Time;durP1;ratioP1;P1;durP2;ratioP2;P2;SDS_P1;SDS_P2;PMS_P1;PMS_P2;Temp;Humidity;BMP_temperature;BMP_pressure;BME280_temperature;BME280_humidity;BME280_pressure;Samples;Min_cycle;Max_cycle;Signal;HPM_P1;HPM_P2
2021/12/28 00:02:00;;;;;;;140.20;23.73;;;;;;;3.32;94.39;99377.06;10460390;28;20041;-80
2021/12/28 00:07:02;;;;;;;18.67;8.43;;;;;;;3.36;94.60;99373.84;10459080;28;20045;-80
2021/12/28 00:12:09;;;;;;;65.43;14.57;;;;;;;3.17;94.20;99362.53;10459239;28;20033;-81
2021/12/28 00:22:36;;;;;;;199.20;36.58;;;;;;;3.11;94.29;99363.91;10460863;28;20393;-81
2021/12/28 00:27:37;;;;;;;24.42;8.68;;;;;;;3.01;94.25;99365.09;10460958;28;20029;-81
2021/12/28 00:32:38;;;;;;;114.85;22.00;;;;;;;2.97;94.43;99352.81;10458633;28;20048;-81
2021/12/28 00:37:39;;;;;;;34.75;13.10;;;;;;;3.08;94.50;99346.53;10459129;28;20124;-81
2021/12/28 00:42:39;;;;;;;19.42;8.75;;;;;;;3.04;94.31;99345.50;10459955;28;20376;-81
2021/12/28 00:47:40;;;;;;;74.18;17.40;;;;;;;3.34;94.58;99334.09;10457809;28;20029;-81
2021/12/28 00:52:40;;;;;;;51.53;15.15;;;;;;;3.19;94.20;99332.47;10458839;28;20087;-80
2021/12/28 00:57:41;;;;;;;26.48;12.43;;;;;;;3.19;94.71;99332.47;10457662;28;20033;-81
2021/12/28 01:02:41;;;;;;;31.88;11.90;;;;;;;3.19;94.58;99323.84;10458241;28;20095;-81
2021/12/28 01:07:42;;;;;;;28.63;11.00;;;;;;;3.29;94.52;99325.19;10459394;28;20476;-81
2021/12/28 01:12:42;;;;;;;30.33;11.02;;;;;;;3.22;94.96;99316.25;10456298;28;20053;-81
2021/12/28 01:17:43;;;;;;;31.35;11.23;;;;;;;3.53;94.83;99312.66;10456871;28;20021;-81
2021/12/28 01:22:44;;;;;;;21.63;9.13;;;;;;;3.62;95.12;99314.81;10456303;28;20469;-81
2021/12/28 01:27:45;;;;;;;24.00;9.77;;;;;;;3.72;95.49;99308.41;10456080;28;20083;-81
2021/12/28 01:32:45;;;;;;;32.00;12.15;;;;;;;3.75;95.25;99303.38;10440100;28;20060;-81
2021/12/28 01:37:46;;;;;;;31.15;11.05;;;;;;;3.87;95.05;99300.50;10456670;28;20091;-81
2021/12/28 01:43:04;;;;;;;51.70;15.48;;;;;;;3.98;95.10;99291.56;10457099;28;20037;-81
2021/12/28 01:48:09;;;;;;;26.65;10.38;;;;;;;4.03;94.84;99282.31;10456786;28;20037;-81
2021/12/28 01:53:10;;;;;;;50.17;13.20;;;;;;;4.11;95.10;99282.69;10440880;28;20036;-81
2021/12/28 01:58:10;;;;;;;23.10;8.50;;;;;;;4.26;94.90;99290.28;10455113;28;20025;-81
2021/12/28 02:03:13;;;;;;;31.23;10.57;;;;;;;4.40;94.99;99293.56;10456150;28;20127;-81
2021/12/28 02:08:14;;;;;;;28.88;10.85;;;;;;;4.39;95.34;99286.59;10439409;28;20425;-81
2021/12/28 02:13:15;;;;;;;16.43;6.17;;;;;;;4.36;95.51;99286.44;10470334;28;20029;-81
2021/12/28 02:18:17;;;;;;;26.10;11.30;;;;;;;4.53;95.24;99287.22;10450501;28;20060;-82
2021/12/28 02:23:18;;;;;;;;;;;;;;;4.65;95.23;99285.19;10454351;28;20044;-82
2021/12/28 02:28:18;;;;;;;34.45;12.60;;;;;;;4.75;94.83;99273.56;10454827;28;20015;-82
2021/12/28 02:33:20;;;;;;;27.75;9.25;;;;;;;4.76;95.83;99275.34;10454597;28;20032;-82
2021/12/28 02:38:21;;;;;;;44.05;12.32;;;;;;;4.85;95.45;99262.78;10453168;28;20155;-82
2021/12/28 02:43:21;;;;;;;33.03;11.73;;;;;;;4.99;95.24;99265.97;10438143;28;20103;-82
2021/12/28 02:48:24;;;;;;;36.60;14.82;;;;;;;5.12;95.77;99259.66;10454501;28;20029;-82
2021/12/28 02:53:25;;;;;;;47.40;13.82;;;;;;;5.17;95.24;99253.78;10469026;28;20033;-81
2021/12/28 02:58:30;;;;;;;35.10;11.90;;;;;;;5.11;95.42;99251.78;10420974;28;20037;-82
2021/12/28 03:03:32;;;;;;;34.65;12.48;;;;;;;5.02;94.97;99251.38;10453129;28;20041;-82
2021/12/28 03:08:33;;;;;;;36.72;12.77;;;;;;;4.94;95.60;99254.53;10435657;28;20049;-82
2021/12/28 03:13:39;;;;;;;19.57;8.80;;;;;;;4.78;95.44;99237.41;10451844;28;20036;-81
2021/12/28 03:18:40;;;;;;;30.20;12.25;;;;;;;4.52;95.44;99234.53;10444399;28;20024;-82
2021/12/28 03:23:40;;;;;;;32.80;11.25;;;;;;;4.55;95.01;99236.38;10451595;28;20561;-82
2021/12/28 03:28:42;;;;;;;29.83;10.40;;;;;;;4.53;95.33;99227.63;10452929;28;20029;-82
2021/12/28 03:33:43;;;;;;;35.00;9.33;;;;;;;4.45;95.80;99231.56;10452886;28;20021;-82
2021/12/28 03:38:44;;;;;;;33.17;10.03;;;;;;;4.48;95.24;99230.03;10468844;28;20048;-82
2021/12/28 03:43:46;;;;;;;121.05;16.75;;;;;;;4.40;95.60;99221.03;10437252;28;20296;-82
2021/12/28 03:48:47;;;;;;;15.77;6.30;;;;;;;4.27;95.27;99209.19;10452815;28;20032;-82
2021/12/28 03:53:47;;;;;;;31.02;12.32;;;;;;;4.36;95.11;99207.03;10452990;28;20040;-81
2021/12/28 03:58:48;;;;;;;108.22;20.05;;;;;;;4.71;94.69;99199.09;10451941;28;20041;-81
2021/12/28 04:03:48;;;;;;;36.95;11.35;;;;;;;4.84;94.98;99182.34;10452156;28;20048;-82
2021/12/28 04:08:49;;;;;;;41.03;14.32;;;;;;;4.90;95.24;99186.94;10451067;28;20123;-82
2021/12/28 04:13:49;;;;;;;49.05;14.15;;;;;;;4.97;95.71;99174.28;10431932;28;20033;-81
2021/12/28 04:18:50;;;;;;;43.33;11.35;;;;;;;5.06;95.50;99175.50;10435880;28;20029;-81
2021/12/28 04:23:51;;;;;;;39.13;11.48;;;;;;;5.19;94.95;99169.13;10468878;28;20025;-81
2021/12/28 04:28:51;;;;;;;30.67;11.88;;;;;;;5.18;95.13;99176.00;10451465;28;20407;-81
2021/12/28 04:33:52;;;;;;;40.97;13.10;;;;;;;5.42;95.45;99162.28;10450866;28;20078;-81
2021/12/28 04:38:52;;;;;;;29.88;8.98;;;;;;;5.37;95.64;99176.78;10451477;28;20112;-81
2021/12/28 04:43:53;;;;;;;38.47;11.48;;;;;;;5.37;95.36;99159.53;10457849;28;20396;-81
2021/12/28 04:48:53;;;;;;;35.53;12.00;;;;;;;5.49;95.76;99164.31;10458620;28;20028;-81
2021/12/28 04:53:55;;;;;;;34.35;10.93;;;;;;;5.50;94.94;99176.47;10440562;28;20056;-81
2021/12/28 04:58:55;;;;;;;34.73;10.20;;;;;;;5.44;95.63;99176.22;10442600;28;20045;-81
2021/12/28 05:03:56;;;;;;;23.90;9.23;;;;;;;5.41;95.67;99178.69;10457677;28;20091;-81
2021/12/28 05:08:56;;;;;;;35.40;11.77;;;;;;;5.46;95.71;99184.06;10457168;28;20072;-82
2021/12/28 05:13:57;;;;;;;32.10;10.68;;;;;;;5.39;95.51;99178.63;10422176;28;20051;-81
2021/12/28 05:18:57;;;;;;;37.17;15.43;;;;;;;5.37;95.18;99179.38;10455911;28;20437;-81
2021/12/28 05:23:58;;;;;;;36.83;12.07;;;;;;;5.47;95.81;99173.75;10440510;28;20094;-81
2021/12/28 05:28:59;;;;;;;39.00;12.30;;;;;;;5.68;95.89;99162.44;10438850;28;20071;-81
2021/12/28 05:33:59;;;;;;;40.17;13.73;;;;;;;5.72;95.21;99159.16;10455768;28;20044;-81
2021/12/28 05:39:00;;;;;;;35.58;14.60;;;;;;;5.91;95.74;99165.97;10458008;28;20068;-81
2021/12/28 05:44:01;;;;;;;32.78;12.05;;;;;;;5.83;95.55;99155.28;10488419;28;20156;-82
2021/12/28 05:49:02;;;;;;;45.03;13.65;;;;;;;5.73;95.50;99146.25;10456091;28;20510;-82
2021/12/28 05:54:03;;;;;;;32.83;10.98;;;;;;;5.83;95.34;99154.41;10470550;28;20029;-81
2021/12/28 05:59:04;;;;;;;32.35;12.85;;;;;;;5.82;95.95;99137.91;10414872;28;20033;-80
2021/12/28 06:04:04;;;;;;;42.92;15.20;;;;;;;5.76;96.09;99147.19;10442940;28;20033;-80
2021/12/28 06:09:05;;;;;;;32.92;11.65;;;;;;;5.71;95.63;99152.19;10454373;28;20021;-79
2021/12/28 06:14:05;;;;;;;31.67;13.90;;;;;;;5.78;95.41;99146.41;10456578;28;20120;-80
2021/12/28 06:19:06;;;;;;;33.17;13.73;;;;;;;5.76;95.58;99153.25;10453880;28;20036;-80
2021/12/28 06:24:07;;;;;;;37.55;13.93;;;;;;;5.79;95.21;99144.72;10453872;28;20040;-80
2021/12/28 06:29:07;;;;;;;25.13;12.27;;;;;;;5.81;95.23;99151.72;10437184;28;20516;-80
2021/12/28 06:34:08;;;;;;;34.42;13.95;;;;;;;5.83;95.40;99144.88;10452742;28;20039;-83
2021/12/28 06:39:08;;;;;;;41.83;16.48;;;;;;;5.86;95.72;99138.94;10435165;28;20089;-82
2021/12/28 06:44:09;;;;;;;49.83;15.82;;;;;;;5.81;95.66;99138.75;10420262;28;20037;-83
2021/12/28 06:49:10;;;;;;;31.35;15.20;;;;;;;5.71;95.30;99126.22;10454220;28;20473;-82
2021/12/28 06:54:10;;;;;;;30.75;13.95;;;;;;;5.49;95.46;99112.41;10454587;28;20033;-82
2021/12/28 06:59:11;;;;;;;26.45;12.65;;;;;;;5.25;95.21;99107.13;10453744;28;20029;-81
2021/12/28 07:04:11;;;;;;;46.25;15.50;;;;;;;5.04;95.39;99102.84;10468385;28;20496;-81
2021/12/28 07:09:12;;;;;;;31.60;14.93;;;;;;;5.16;95.21;99111.94;10437009;28;20456;-81
2021/12/28 07:14:12;;;;;;;21.90;12.45;;;;;;;5.07;95.22;99112.44;10451882;28;20086;-84
2021/12/28 07:19:13;;;;;;;31.27;13.25;;;;;;;5.19;95.04;99118.13;10434994;28;20029;-82
2021/12/28 07:24:13;;;;;;;35.63;15.23;;;;;;;5.20;94.84;99126.81;10435236;28;20072;-83
2021/12/28 07:29:14;;;;;;;30.13;15.95;;;;;;;5.26;95.54;99129.66;10451427;28;20120;-87
2021/12/28 07:34:14;;;;;;;25.55;12.35;;;;;;;5.36;94.81;99126.63;10467918;28;20120;-82
2021/12/28 07:39:15;;;;;;;29.83;12.75;;;;;;;5.43;94.86;99131.22;10452584;28;20036;-83
2021/12/28 07:44:16;;;;;;;18.88;10.23;;;;;;;5.56;95.36;99131.72;10449760;28;20131;-83
2021/12/28 07:49:16;;;;;;;28.33;14.57;;;;;;;5.72;95.60;99126.31;10414712;28;20128;-83
2021/12/28 07:54:16;;;;;;;25.25;10.63;;;;;;;5.87;95.31;99120.81;10452096;28;20025;-83
2021/12/28 07:59:17;;;;;;;25.17;10.40;;;;;;;5.96;95.31;99125.47;10452616;28;20449;-83
2021/12/28 08:04:17;;;;;;;16.13;8.98;;;;;;;6.04;95.67;99127.53;10430525;28;20033;-83
2021/12/28 08:09:18;;;;;;;22.45;10.02;;;;;;;6.05;95.22;99124.97;10450888;28;20078;-80
2021/12/28 08:14:18;;;;;;;25.90;10.20;;;;;;;6.08;95.24;99122.47;10453029;28;20022;-81
2021/12/28 08:19:19;;;;;;;20.58;9.43;;;;;;;6.16;95.25;99121.06;10441103;28;20025;-82
2021/12/28 08:24:20;;;;;;;21.80;8.48;;;;;;;6.24;95.13;99112.66;10440958;28;20035;-81
2021/12/28 08:29:20;;;;;;;21.40;9.52;;;;;;;6.28;95.24;99112.84;10440779;28;20033;-82
2021/12/28 08:34:22;;;;;;;21.15;7.40;;;;;;;6.34;95.24;99109.56;10473985;28;20504;-82
2021/12/28 08:39:23;;;;;;;18.85;7.65;;;;;;;6.49;95.78;99105.75;10457057;28;20132;-86
2021/12/28 08:44:27;;;;;;;19.85;7.15;;;;;;;6.52;95.01;99100.66;10456869;28;20052;-87
2021/12/28 08:49:27;;;;;;;31.98;10.55;;;;;;;6.58;95.14;99096.59;10440745;28;20090;-82
2021/12/28 08:54:28;;;;;;;49.40;18.83;;;;;;;6.63;95.59;99095.88;10458716;28;20079;-81
2021/12/28 08:59:28;;;;;;;33.55;15.40;;;;;;;6.71;95.29;99091.81;10458261;28;20515;-80
2021/12/28 09:04:29;;;;;;;14.40;6.30;;;;;;;6.75;95.76;99101.50;10458497;28;20060;-80
2021/12/28 09:09:29;;;;;;;12.48;7.30;;;;;;;6.86;95.02;99092.34;10441850;28;20422;-83
2021/12/28 09:14:34;;;;;;;15.75;7.43;;;;;;;6.84;95.70;99093.09;10457831;28;20435;-81
2021/12/28 09:19:36;;;;;;;20.38;8.52;;;;;;;6.96;95.29;99083.13;10457436;28;20060;-81
2021/12/28 09:24:37;;;;;;;10.85;4.07;;;;;;;7.26;95.28;99081.50;10490930;28;20567;-81
2021/12/28 09:29:42;;;;;;;9.95;3.10;;;;;;;7.41;95.01;99084.59;10452077;28;20487;-81
2021/12/28 09:34:43;;;;;;;10.65;5.35;;;;;;;7.56;95.20;99076.34;10468319;28;20029;-80
2021/12/28 09:39:46;;;;;;;7.10;3.00;;;;;;;7.69;95.01;99075.03;10455576;28;20042;-79
2021/12/28 09:44:49;;;;;;;5.25;2.83;;;;;;;7.86;95.06;99070.31;10469978;28;20052;-80
2021/12/28 09:49:50;;;;;;;4.72;2.72;;;;;;;8.04;94.66;99063.88;10459993;28;20036;-82
2021/12/28 09:54:50;;;;;;;5.22;2.92;;;;;;;7.95;94.53;99061.91;10459745;28;20024;-83
2021/12/28 09:59:51;;;;;;;8.68;2.88;;;;;;;7.94;94.01;99055.78;10433300;28;20115;-82
2021/12/28 10:05:07;;;;;;;8.90;2.67;;;;;;;8.10;94.07;99044.94;10459496;28;20146;-80
2021/12/28 10:10:08;;;;;;;6.35;2.97;;;;;;;8.26;93.73;99041.03;10442981;28;20037;-82
2021/12/28 10:15:13;;;;;;;4.32;2.20;;;;;;;8.38;93.40;99042.25;10425816;28;20083;-82
2021/12/28 10:20:16;;;;;;;3.53;1.88;;;;;;;8.51;92.69;99025.25;10436772;28;20488;-83
2021/12/28 10:25:30;;;;;;;3.95;1.90;;;;;;;8.44;92.26;99027.63;10410194;28;20043;-83
2021/12/28 10:30:31;;;;;;;4.57;1.85;;;;;;;8.38;92.21;99003.16;10487638;28;20354;-84
2021/12/28 10:35:35;;;;;;;12.73;10.27;;;;;;;8.43;92.34;98998.06;10458711;28;20560;-83
2021/12/28 10:40:57;;;;;;;7.68;4.45;;;;;;;8.70;91.94;98977.91;10400517;28;20478;-82
2021/12/28 10:46:05;;;;;;;4.03;2.00;;;;;;;9.02;90.48;98980.41;10458114;28;20037;-83
2021/12/28 10:51:12;;;;;;;3.10;1.50;;;;;;;8.98;89.97;98963.78;10463626;28;20021;-83
2021/12/28 10:56:13;;;;;;;2.78;1.45;;;;;;;8.89;90.04;98967.06;10474492;28;20036;-85
2021/12/28 11:01:20;;;;;;;3.17;1.77;;;;;;;8.85;89.80;98954.81;10472476;28;20448;-83
2021/12/28 11:06:22;;;;;;;1.85;1.23;;;;;;;8.85;90.12;98962.63;10463582;28;20639;-84
2021/12/28 11:11:24;;;;;;;2.13;1.35;;;;;;;8.82;89.99;98952.13;10457535;28;20083;-85
2021/12/28 11:16:28;;;;;;;3.17;1.45;;;;;;;8.84;90.61;98953.03;10436593;28;20021;-84
2021/12/28 11:21:34;;;;;;;3.63;1.98;;;;;;;8.78;90.79;98929.41;10420840;28;20474;-85
2021/12/28 11:26:48;;;;;;;3.35;2.25;;;;;;;8.64;91.16;98923.84;10451941;28;20036;-85
2021/12/28 11:31:57;;;;;;;2.92;2.22;;;;;;;8.66;91.34;98910.03;10391198;28;20036;-84
2021/12/28 11:37:12;;;;;;;6.07;2.35;;;;;;;8.56;91.96;98894.09;10451497;28;20045;-83
2021/12/28 11:42:14;;;;;;;5.32;2.53;;;;;;;8.50;92.00;98906.16;10411801;28;20064;-83
2021/12/28 11:47:15;;;;;;;218.38;153.80;;;;;;;8.41;92.31;98913.72;10443532;28;20052;-82
2021/12/28 11:52:17;;;;;;;5.82;3.03;;;;;;;8.40;92.76;98903.25;10464914;28;20061;-83
2021/12/28 11:57:20;;;;;;;11.45;4.55;;;;;;;8.32;91.75;98910.88;10467071;28;20388;-82
2021/12/28 12:02:21;;;;;;;16.15;4.68;;;;;;;8.38;89.49;98905.81;10462696;28;20576;-82
2021/12/28 12:07:24;;;;;;;14.20;4.30;;;;;;;8.41;88.39;98903.28;10460225;28;20032;-81
2021/12/28 12:12:28;;;;;;;17.40;5.85;;;;;;;8.42;86.72;98932.84;10475871;28;20035;-83
2021/12/28 12:17:37;;;;;;;20.20;4.85;;;;;;;8.37;85.51;98919.69;10485251;28;20028;-83
2021/12/28 12:22:39;;;;;;;23.20;6.45;;;;;;;8.39;84.54;98925.81;10499439;28;20033;-82
2021/12/28 12:27:41;;;;;;;19.45;6.43;;;;;;;8.33;83.00;98910.03;10458594;28;20114;-81
2021/12/28 12:33:14;;;;;;;26.73;9.93;;;;;;;8.26;82.46;98902.91;10476008;28;20053;-82
2021/12/28 12:38:15;;;;;;;21.63;5.65;;;;;;;8.25;81.73;98925.47;10453190;28;20401;-83
2021/12/28 12:43:16;;;;;;;24.05;6.10;;;;;;;8.30;81.20;98928.19;10479123;28;20037;-83
2021/12/28 12:48:40;;;;;;;19.02;7.22;;;;;;;8.44;80.02;98925.94;10452552;28;20017;-82
2021/12/28 12:53:46;;;;;;;26.05;10.52;;;;;;;8.54;80.05;98919.25;10478399;28;20052;-81
2021/12/28 12:58:47;;;;;;;24.35;7.95;;;;;;;8.53;81.15;98921.00;10457865;28;20044;-83
2021/12/28 13:03:48;;;;;;;25.33;7.20;;;;;;;9.05;80.76;98917.84;10465883;28;20063;-83
2021/12/28 13:08:57;;;;;;;27.52;11.23;;;;;;;9.22;78.27;98908.66;10458533;28;20063;-83
2021/12/28 13:13:58;;;;;;;27.80;10.18;;;;;;;9.27;77.77;98897.44;10473510;28;20208;-82
2021/12/28 13:19:14;;;;;;;19.83;5.80;;;;;;;9.18;77.38;98901.63;10457214;28;20482;-81
2021/12/28 13:24:15;;;;;;;33.78;7.07;;;;;;;9.31;76.20;98889.69;10440524;28;20033;-81
2021/12/28 13:29:29;;;;;;;23.65;7.60;;;;;;;9.73;73.85;98884.41;10436051;28;20485;-80
2021/12/28 13:34:30;;;;;;;36.80;7.20;;;;;;;10.83;71.11;98892.44;10453638;28;20452;-86
2021/12/28 13:39:30;;;;;;;33.08;7.97;;;;;;;11.06;68.96;98909.34;10456561;28;20128;-83
2021/12/28 13:44:31;;;;;;;26.25;6.38;;;;;;;10.63;69.60;98897.38;10458935;28;20069;-85
2021/12/28 13:49:31;;;;;;;31.90;7.63;;;;;;;10.42;69.53;98901.41;10456121;28;20091;-84
2021/12/28 13:54:32;;;;;;;20.35;6.05;;;;;;;9.63;71.34;98917.34;10457064;28;20490;-82
2021/12/28 13:59:33;;;;;;;42.42;12.32;;;;;;;8.93;73.81;98918.44;10439254;28;20064;-84
2021/12/28 14:04:33;;;;;;;23.35;7.13;;;;;;;8.70;74.42;98931.81;10439693;28;20125;-82
2021/12/28 14:09:34;;;;;;;30.13;8.45;;;;;;;8.35;76.98;98948.34;10456825;28;20115;-81
2021/12/28 14:14:35;;;;;;;14.40;4.45;;;;;;;7.87;78.96;98972.22;10448479;28;20075;-83
2021/12/28 14:19:37;;;;;;;16.07;3.87;;;;;;;6.85;82.07;98988.25;10449264;28;20036;-82
2021/12/28 14:24:37;;;;;;;13.73;5.33;;;;;;;6.22;86.49;99000.00;10455211;28;20065;-82
2021/12/28 14:29:38;;;;;;;11.60;4.03;;;;;;;5.94;87.99;98986.00;10454446;28;20489;-84
2021/12/28 14:34:44;;;;;;;14.77;1.83;;;;;;;5.66;87.96;98975.53;10419905;28;20048;-84
2021/12/28 14:39:55;;;;;;;4.28;1.33;;;;;;;5.41;88.14;98976.31;10437592;28;20048;-82
2021/12/28 14:45:04;;;;;;;4.38;1.05;;;;;;;5.23;88.46;98999.84;10454916;28;20053;-84
2021/12/28 14:50:18;;;;;;;1.15;0.60;;;;;;;5.16;89.29;98995.25;10453323;28;20539;-84
2021/12/28 14:55:28;;;;;;;6.43;1.15;;;;;;;5.14;89.74;99008.13;10451901;28;20480;-83
2021/12/28 15:00:32;;;;;;;5.15;1.48;;;;;;;5.25;90.20;99022.41;10435506;28;20032;-84
2021/12/28 15:05:39;;;;;;;7.60;2.50;;;;;;;5.21;90.83;99023.09;10484984;28;20021;-84
2021/12/28 15:10:45;;;;;;;6.95;2.67;;;;;;;5.19;91.16;99016.97;10482315;28;20035;-85
2021/12/28 15:15:46;;;;;;;5.72;1.40;;;;;;;5.14;90.68;99008.13;10440374;28;20468;-85
2021/12/28 15:20:47;;;;;;;7.10;1.48;;;;;;;5.09;91.03;98991.50;10451743;28;20071;-83
2021/12/28 15:25:47;;;;;;;12.43;2.20;;;;;;;5.05;91.66;98989.63;10436071;28;20033;-83
2021/12/28 15:30:48;;;;;;;3.63;0.80;;;;;;;5.05;91.49;98980.13;10499892;28;20420;-81
2021/12/28 15:35:48;;;;;;;7.80;2.08;;;;;;;5.05;91.80;98977.56;10460110;28;20045;-83
2021/12/28 15:40:52;;;;;;;9.35;0.98;;;;;;;5.09;91.76;98987.22;10474215;28;20116;-82
2021/12/28 15:45:54;;;;;;;6.00;1.10;;;;;;;5.12;92.08;98965.69;10470147;28;20044;-82
2021/12/28 15:50:54;;;;;;;7.83;1.20;;;;;;;5.12;91.91;98944.94;10453003;28;20036;-82
2021/12/28 15:55:55;;;;;;;7.05;1.42;;;;;;;5.21;92.00;98936.66;10461055;28;20124;-82
2021/12/28 16:00:55;;;;;;;5.90;1.45;;;;;;;5.23;92.43;98954.03;10455106;28;20051;-82
2021/12/28 16:05:56;;;;;;;9.75;2.28;;;;;;;5.28;92.54;98957.66;10444396;28;20051;-84
2021/12/28 16:10:56;;;;;;;6.63;1.75;;;;;;;5.34;92.11;98957.03;10443601;28;20029;-84
2021/12/28 16:15:57;;;;;;;11.35;2.05;;;;;;;5.42;93.23;98971.19;10407781;28;20028;-83
2021/12/28 16:20:58;;;;;;;11.98;5.55;;;;;;;5.44;92.74;98994.56;10437743;28;20104;-84
2021/12/28 16:25:59;;;;;;;5.15;2.35;;;;;;;5.52;92.86;99008.72;10478643;28;20465;-83
2021/12/28 16:30:59;;;;;;;7.22;2.38;;;;;;;5.65;92.90;99010.09;10492602;28;20545;-86
2021/12/28 16:36:05;;;;;;;7.90;2.50;;;;;;;5.57;92.55;99002.00;10476835;28;20052;-85
2021/12/28 16:41:07;;;;;;;9.73;4.68;;;;;;;5.72;92.78;99003.41;10501827;28;20028;-83
2021/12/28 16:46:07;;;;;;;10.63;3.72;;;;;;;5.72;92.81;99009.50;10469782;28;20040;-84
2021/12/28 16:51:08;;;;;;;6.85;3.00;;;;;;;5.71;93.26;99019.81;10457586;28;20070;-84
2021/12/28 16:56:08;;;;;;;10.10;3.53;;;;;;;5.74;92.87;99014.72;10459992;28;20029;-86
2021/12/28 17:01:09;;;;;;;10.80;3.75;;;;;;;5.84;93.26;99019.44;10459935;28;20064;-84
2021/12/28 17:06:11;;;;;;;14.52;3.97;;;;;;;5.86;93.47;99022.09;10478367;28;20116;-83
2021/12/28 17:11:12;;;;;;;;;;;;;;;5.87;93.32;99034.25;10467158;28;20523;-83
2021/12/28 17:16:12;;;;;;;9.05;5.22;;;;;;;5.92;93.52;99037.91;10494080;28;19924;-82
2021/12/28 17:21:18;;;;;;;14.82;5.18;;;;;;;5.94;93.45;99037.94;10484025;28;20021;-84
2021/12/28 17:26:20;;;;;;;16.88;6.50;;;;;;;5.96;94.21;99055.38;10460139;28;20048;-84
2021/12/28 17:31:21;;;;;;;20.80;6.18;;;;;;;6.10;93.82;99063.69;10456863;28;20033;-84
2021/12/28 17:36:21;;;;;;;14.75;7.07;;;;;;;6.08;94.03;99078.34;10488392;28;20048;-85
2021/12/28 17:41:22;;;;;;;10.73;5.30;;;;;;;6.14;93.81;99088.06;10454898;28;20082;-83
2021/12/28 17:46:23;;;;;;;9.13;3.65;;;;;;;6.15;94.15;99097.63;10455499;28;20548;-83
2021/12/28 17:51:24;;;;;;;7.80;4.80;;;;;;;6.15;93.85;99105.44;10453793;28;20048;-83
2021/12/28 17:56:24;;;;;;;8.45;6.10;;;;;;;6.16;93.54;99118.47;10453614;28;20028;-84
2021/12/28 18:01:25;;;;;;;17.48;7.32;;;;;;;6.26;94.22;99119.69;10473567;28;20040;-89
2021/12/28 18:06:26;;;;;;;10.75;5.95;;;;;;;6.26;94.04;99137.88;10478126;28;20033;-83
2021/12/28 18:11:26;;;;;;;13.90;9.13;;;;;;;6.23;94.15;99148.16;10464149;28;20440;-84
2021/12/28 18:16:27;;;;;;;13.90;9.68;;;;;;;6.29;94.43;99155.28;10468101;28;20021;-83
2021/12/28 18:21:27;;;;;;;15.88;9.77;;;;;;;6.32;94.13;99158.91;10474191;28;20088;-83
2021/12/28 18:26:29;;;;;;;16.75;10.85;;;;;;;6.38;94.31;99160.81;10463844;28;20033;-83
2021/12/28 18:31:29;;;;;;;28.77;13.32;;;;;;;6.39;94.79;99174.72;10473465;28;20066;-83
2021/12/28 18:36:30;;;;;;;28.45;14.70;;;;;;;6.44;94.16;99181.84;10493996;28;20072;-83
2021/12/28 18:41:33;;;;;;;25.40;13.82;;;;;;;6.49;94.21;99197.63;10463194;28;20038;-81
2021/12/28 18:46:34;;;;;;;27.17;11.00;;;;;;;6.51;94.27;99203.78;10465621;28;20028;-82
2021/12/28 18:51:35;;;;;;;21.13;10.30;;;;;;;6.53;94.20;99222.91;10473469;28;20032;-81
2021/12/28 18:56:36;;;;;;;24.42;10.60;;;;;;;6.56;93.86;99235.13;10473718;28;20017;-82
2021/12/28 19:01:36;;;;;;;16.55;10.90;;;;;;;6.59;94.39;99245.63;10486912;28;20033;-83
2021/12/28 19:06:37;;;;;;;20.63;12.70;;;;;;;6.60;93.91;99250.91;10455208;28;20058;-82
2021/12/28 19:11:38;;;;;;;24.30;11.93;;;;;;;6.63;94.23;99257.91;10455159;28;20033;-82
2021/12/28 19:16:38;;;;;;;20.60;14.20;;;;;;;6.68;94.20;99258.09;10458974;28;20535;-83
2021/12/28 19:21:40;;;;;;;22.63;13.88;;;;;;;6.71;94.31;99260.81;10479448;28;20020;-82
2021/12/28 19:26:41;;;;;;;25.50;14.68;;;;;;;6.70;94.30;99274.66;10478003;28;20033;-82
2021/12/28 19:31:41;;;;;;;23.08;14.63;;;;;;;6.73;93.98;99296.44;10452020;28;20116;-83
2021/12/28 19:36:42;;;;;;;20.48;15.38;;;;;;;6.75;94.39;99309.50;10452870;28;20623;-82
2021/12/28 19:41:43;;;;;;;24.48;13.32;;;;;;;6.76;94.55;99316.47;10437407;28;20033;-79
2021/12/28 19:46:43;;;;;;;19.75;14.60;;;;;;;6.75;94.56;99335.50;10469674;28;20037;-80
2021/12/28 19:51:44;;;;;;;21.83;12.75;;;;;;;6.76;94.63;99340.75;10450108;28;20025;-81
2021/12/28 19:56:46;;;;;;;21.88;12.85;;;;;;;6.79;94.62;99353.00;10450254;28;20040;-81
2021/12/28 20:01:46;;;;;;;19.45;12.63;;;;;;;6.85;94.06;99379.25;10432149;28;20087;-80
2021/12/28 20:06:47;;;;;;;18.90;13.60;;;;;;;6.91;94.41;99404.59;10449809;28;20550;-80
2021/12/28 20:11:48;;;;;;;21.98;13.52;;;;;;;6.93;94.65;99392.53;10484707;28;20033;-80
2021/12/28 20:16:49;;;;;;;19.70;11.30;;;;;;;6.97;94.51;99417.84;10438972;28;20025;-81
2021/12/28 20:21:50;;;;;;;20.63;12.45;;;;;;;6.98;93.88;99439.53;10459198;28;20381;-81
2021/12/28 20:26:52;;;;;;;15.75;11.23;;;;;;;6.95;93.81;99445.50;10457058;28;20052;-80
2021/12/28 20:31:53;;;;;;;19.95;11.23;;;;;;;6.96;94.28;99454.22;10456465;28;20112;-80
2021/12/28 20:36:53;;;;;;;17.00;10.15;;;;;;;6.96;94.53;99468.09;10458592;28;20576;-81
2021/12/28 20:41:54;;;;;;;25.45;10.68;;;;;;;6.97;94.25;99477.66;10437359;28;20033;-79
2021/12/28 20:46:54;;;;;;;16.30;11.25;;;;;;;6.97;93.88;99489.78;10456540;28;20560;-80
2021/12/28 20:51:55;;;;;;;17.27;10.90;;;;;;;7.00;94.15;99501.19;10439043;28;20059;-78
2021/12/28 20:56:55;;;;;;;21.73;12.90;;;;;;;7.02;94.50;99514.28;10457334;28;20066;-78
2021/12/28 21:01:56;;;;;;;20.52;13.55;;;;;;;7.02;94.27;99522.97;10457827;28;20420;-80
2021/12/28 21:06:57;;;;;;;19.15;13.55;;;;;;;7.03;94.28;99527.34;10483603;28;20124;-79
2021/12/28 21:11:58;;;;;;;20.42;13.93;;;;;;;7.04;94.55;99557.72;10454610;28;20029;-79
2021/12/28 21:16:58;;;;;;;24.50;15.25;;;;;;;7.05;94.71;99577.72;10474218;28;20107;-79
2021/12/28 21:21:59;;;;;;;25.20;16.63;;;;;;;7.08;94.41;99587.38;10456867;28;20036;-80
2021/12/28 21:27:00;;;;;;;21.25;14.18;;;;;;;7.10;94.16;99595.22;10452241;28;20032;-82
2021/12/28 21:32:01;;;;;;;25.08;17.20;;;;;;;7.08;94.61;99608.19;10439671;28;20425;-80
2021/12/28 21:37:01;;;;;;;28.38;18.55;;;;;;;7.07;94.69;99622.03;10473563;28;20108;-79
2021/12/28 21:42:02;;;;;;;28.63;17.38;;;;;;;7.09;94.72;99625.59;10472927;28;20083;-81
2021/12/28 21:47:04;;;;;;;29.52;16.27;;;;;;;7.08;94.53;99648.91;10479002;28;20024;-79
2021/12/28 21:52:04;;;;;;;30.73;17.57;;;;;;;7.07;94.80;99665.34;10421052;28;20042;-78
2021/12/28 21:57:07;;;;;;;23.58;15.15;;;;;;;7.07;94.69;99673.16;10463345;28;20029;-79
2021/12/28 22:02:09;;;;;;;25.30;14.93;;;;;;;7.07;94.09;99684.47;10455998;28;20037;-79
2021/12/28 22:07:10;;;;;;;22.98;12.98;;;;;;;7.08;94.11;99706.16;10457499;28;20051;-79
2021/12/28 22:12:12;;;;;;;22.90;13.02;;;;;;;7.02;94.23;99718.06;10456719;28;20044;-79
2021/12/28 22:17:13;;;;;;;;;;;;;;;7.00;94.48;99735.34;10473557;28;20079;-79
2021/12/28 22:22:14;;;;;;;19.58;11.65;;;;;;;7.01;94.05;99737.09;10455807;28;20403;-79
2021/12/28 22:27:15;;;;;;;23.63;11.85;;;;;;;6.98;94.36;99736.09;10455598;28;20068;-79
2021/12/28 22:32:19;;;;;;;22.90;12.45;;;;;;;6.95;94.48;99757.66;10454548;28;20036;-79
2021/12/28 22:37:20;;;;;;;23.90;13.18;;;;;;;6.95;94.54;99769.78;10452888;28;20048;-79
2021/12/28 22:42:20;;;;;;;20.10;12.63;;;;;;;6.90;94.08;99775.66;10471325;28;20041;-80
2021/12/28 22:47:21;;;;;;;22.83;12.85;;;;;;;6.90;94.39;99779.97;10487125;28;20400;-81
2021/12/28 22:52:21;;;;;;;27.10;14.68;;;;;;;6.92;94.02;99787.84;10489008;28;20056;-80
2021/12/28 22:57:23;;;;;;;27.23;14.93;;;;;;;6.89;93.89;99799.91;10455493;28;20033;-80
2021/12/28 23:02:23;;;;;;;27.83;15.70;;;;;;;6.91;94.16;99812.97;10452985;28;20064;-81
2021/12/28 23:07:24;;;;;;;35.28;18.67;;;;;;;6.91;94.46;99825.97;10436741;28;20493;-81
2021/12/28 23:12:25;;;;;;;29.45;15.93;;;;;;;6.95;93.94;99829.63;10453802;28;20073;-80
2021/12/28 23:17:25;;;;;;;25.90;14.77;;;;;;;6.92;94.15;99839.88;10452412;28;20095;-80
2021/12/28 23:22:26;;;;;;;26.83;13.38;;;;;;;6.92;94.46;99832.06;10437104;28;20028;-80